sensor_id;sensor_type;location;lat;lon;timestamp;P1;durP1;ratioP1;P2;durP2;ratioP2
23702;SDS011;12030;50.376;8.762;2023-07-31T00:01:47;4.03;;;1.30;;
23702;SDS011;12030;50.376;8.762;2023-07-31T00:04:13;6.30;;;1.50;;
23702;SDS011;12030;50.376;8.762;2023-07-31T00:06:38;3.47;;;1.50;;
23702;SDS011;12030;50.376;8.762;2023-07-31T00:09:04;4.60;;;1.50;;
23702;SDS011;12030;50.376;8.762;2023-07-31T00:11:29;3.40;;;1.15;;
23702;SDS011;12030;50.376;8.762;2023-07-31T00:13:55;5.68;;;1.48;;
23702;SDS011;12030;50.376;8.762;2023-07-31T00:16:20;4.90;;;1.77;;
23702;SDS011;12030;50.376;8.762;2023-07-31T00:18:46;4.82;;;1.45;;
23702;SDS011;12030;50.376;8.762;2023-07-31T00:21:12;5.63;;;1.30;;
23702;SDS011;12030;50.376;8.762;2023-07-31T00:23:37;5.25;;;1.50;;
23702;SDS011;12030;50.376;8.762;2023-07-31T00:26:03;6.10;;;1.35;;
23702;SDS011;12030;50.376;8.762;2023-07-31T00:28:28;4.45;;;1.67;;
23702;SDS011;12030;50.376;8.762;2023-07-31T00:30:54;4.60;;;1.48;;
23702;SDS011;12030;50.376;8.762;2023-07-31T00:33:19;6.25;;;1.50;;
23702;SDS011;12030;50.376;8.762;2023-07-31T00:35:45;5.17;;;1.20;;
23702;SDS011;12030;50.376;8.762;2023-07-31T00:38:10;3.60;;;1.33;;
23702;SDS011;12030;50.376;8.762;2023-07-31T00:40:36;3.70;;;1.30;;
23702;SDS011;12030;50.376;8.762;2023-07-31T00:43:02;3.05;;;1.40;;
23702;SDS011;12030;50.376;8.762;2023-07-31T00:45:28;2.88;;;1.27;;
23702;SDS011;12030;50.376;8.762;2023-07-31T00:47:54;4.22;;;1.60;;
23702;SDS011;12030;50.376;8.762;2023-07-31T00:50:20;3.70;;;1.43;;
23702;SDS011;12030;50.376;8.762;2023-07-31T00:52:48;6.37;;;1.30;;
23702;SDS011;12030;50.376;8.762;2023-07-31T00:55:14;4.20;;;1.30;;
23702;SDS011;12030;50.376;8.762;2023-07-31T00:57:40;4.28;;;1.48;;
23702;SDS011;12030;50.376;8.762;2023-07-31T01:00:07;4.55;;;1.40;;
23702;SDS011;12030;50.376;8.762;2023-07-31T01:02:33;3.33;;;1.40;;
23702;SDS011;12030;50.376;8.762;2023-07-31T01:04:59;3.70;;;1.48;;
23702;SDS011;12030;50.376;8.762;2023-07-31T01:07:27;5.32;;;1.65;;
23702;SDS011;12030;50.376;8.762;2023-07-31T01:10:07;3.58;;;1.60;;
23702;SDS011;12030;50.376;8.762;2023-07-31T01:12:38;4.30;;;1.50;;
23702;SDS011;12030;50.376;8.762;2023-07-31T01:15:05;4.25;;;1.50;;
23702;SDS011;12030;50.376;8.762;2023-07-31T01:17:35;4.80;;;1.57;;
23702;SDS011;12030;50.376;8.762;2023-07-31T01:20:02;4.82;;;1.60;;
23702;SDS011;12030;50.376;8.762;2023-07-31T01:31:32;6.28;;;1.50;;
23702;SDS011;12030;50.376;8.762;2023-07-31T01:34:00;4.90;;;1.45;;
23702;SDS011;12030;50.376;8.762;2023-07-31T01:36:26;7.90;;;1.50;;
23702;SDS011;12030;50.376;8.762;2023-07-31T01:38:57;2.80;;;1.40;;
23702;SDS011;12030;50.376;8.762;2023-07-31T01:41:24;4.55;;;1.45;;
23702;SDS011;12030;50.376;8.762;2023-07-31T01:43:49;4.20;;;1.60;;
23702;SDS011;12030;50.376;8.762;2023-07-31T01:46:15;4.67;;;1.50;;
23702;SDS011;12030;50.376;8.762;2023-07-31T01:48:40;5.60;;;1.60;;
23702;SDS011;12030;50.376;8.762;2023-07-31T01:51:06;5.33;;;1.50;;
23702;SDS011;12030;50.376;8.762;2023-07-31T01:53:31;6.93;;;1.60;;
23702;SDS011;12030;50.376;8.762;2023-07-31T01:55:57;4.43;;;1.48;;
23702;SDS011;12030;50.376;8.762;2023-07-31T01:58:23;5.70;;;1.70;;
23702;SDS011;12030;50.376;8.762;2023-07-31T02:00:48;4.60;;;1.90;;
23702;SDS011;12030;50.376;8.762;2023-07-31T02:03:14;4.00;;;1.43;;
23702;SDS011;12030;50.376;8.762;2023-07-31T02:05:45;3.43;;;1.50;;
23702;SDS011;12030;50.376;8.762;2023-07-31T02:08:12;3.43;;;1.50;;
23702;SDS011;12030;50.376;8.762;2023-07-31T02:10:38;6.20;;;1.80;;
23702;SDS011;12030;50.376;8.762;2023-07-31T02:13:03;3.70;;;1.42;;
23702;SDS011;12030;50.376;8.762;2023-07-31T02:15:31;4.55;;;1.67;;
23702;SDS011;12030;50.376;8.762;2023-07-31T02:17:57;4.13;;;1.50;;
23702;SDS011;12030;50.376;8.762;2023-07-31T02:20:23;4.28;;;1.48;;
23702;SDS011;12030;50.376;8.762;2023-07-31T02:22:48;4.50;;;1.60;;
23702;SDS011;12030;50.376;8.762;2023-07-31T02:25:14;3.53;;;1.60;;
23702;SDS011;12030;50.376;8.762;2023-07-31T02:27:39;4.32;;;1.70;;
23702;SDS011;12030;50.376;8.762;2023-07-31T02:30:05;4.07;;;1.60;;
23702;SDS011;12030;50.376;8.762;2023-07-31T02:32:31;3.95;;;1.63;;
23702;SDS011;12030;50.376;8.762;2023-07-31T02:34:57;4.82;;;1.50;;
23702;SDS011;12030;50.376;8.762;2023-07-31T02:37:22;3.45;;;1.42;;
23702;SDS011;12030;50.376;8.762;2023-07-31T02:39:48;3.05;;;1.52;;
23702;SDS011;12030;50.376;8.762;2023-07-31T02:42:14;5.30;;;1.80;;
23702;SDS011;12030;50.376;8.762;2023-07-31T02:44:39;4.43;;;1.50;;
23702;SDS011;12030;50.376;8.762;2023-07-31T02:47:05;4.00;;;1.50;;
23702;SDS011;12030;50.376;8.762;2023-07-31T02:49:31;3.05;;;1.50;;
23702;SDS011;12030;50.376;8.762;2023-07-31T02:51:57;4.27;;;1.70;;
23702;SDS011;12030;50.376;8.762;2023-07-31T02:54:22;4.67;;;2.00;;
23702;SDS011;12030;50.376;8.762;2023-07-31T02:56:48;5.43;;;1.90;;
23702;SDS011;12030;50.376;8.762;2023-07-31T02:59:14;4.63;;;1.77;;
23702;SDS011;12030;50.376;8.762;2023-07-31T03:01:39;4.95;;;1.80;;
23702;SDS011;12030;50.376;8.762;2023-07-31T03:04:05;5.10;;;1.80;;
23702;SDS011;12030;50.376;8.762;2023-07-31T03:06:30;4.43;;;1.90;;
23702;SDS011;12030;50.376;8.762;2023-07-31T03:08:56;4.40;;;1.67;;
23702;SDS011;12030;50.376;8.762;2023-07-31T03:11:21;3.93;;;1.70;;
23702;SDS011;12030;50.376;8.762;2023-07-31T03:13:47;6.13;;;1.73;;
23702;SDS011;12030;50.376;8.762;2023-07-31T03:16:12;3.97;;;2.00;;
23702;SDS011;12030;50.376;8.762;2023-07-31T03:18:38;4.60;;;1.70;;
23702;SDS011;12030;50.376;8.762;2023-07-31T03:21:04;4.43;;;1.90;;
23702;SDS011;12030;50.376;8.762;2023-07-31T03:23:29;4.53;;;1.60;;
23702;SDS011;12030;50.376;8.762;2023-07-31T03:25:59;6.13;;;1.90;;
23702;SDS011;12030;50.376;8.762;2023-07-31T03:28:26;3.70;;;1.80;;
23702;SDS011;12030;50.376;8.762;2023-07-31T03:30:52;4.45;;;2.10;;
23702;SDS011;12030;50.376;8.762;2023-07-31T03:33:18;3.53;;;1.63;;
23702;SDS011;12030;50.376;8.762;2023-07-31T03:35:43;5.10;;;1.83;;
23702;SDS011;12030;50.376;8.762;2023-07-31T03:38:09;4.63;;;1.90;;
23702;SDS011;12030;50.376;8.762;2023-07-31T03:40:34;5.40;;;1.90;;
23702;SDS011;12030;50.376;8.762;2023-07-31T03:43:00;3.93;;;1.83;;
23702;SDS011;12030;50.376;8.762;2023-07-31T03:45:25;4.20;;;1.93;;
23702;SDS011;12030;50.376;8.762;2023-07-31T03:47:51;4.47;;;1.63;;
23702;SDS011;12030;50.376;8.762;2023-07-31T03:50:16;5.60;;;2.00;;
23702;SDS011;12030;50.376;8.762;2023-07-31T03:52:42;3.10;;;1.60;;
23702;SDS011;12030;50.376;8.762;2023-07-31T03:55:08;5.43;;;1.70;;
23702;SDS011;12030;50.376;8.762;2023-07-31T03:57:33;5.70;;;2.00;;
23702;SDS011;12030;50.376;8.762;2023-07-31T03:59:59;4.38;;;1.90;;
23702;SDS011;12030;50.376;8.762;2023-07-31T04:02:24;4.80;;;1.70;;
23702;SDS011;12030;50.376;8.762;2023-07-31T04:04:50;3.58;;;1.50;;
23702;SDS011;12030;50.376;8.762;2023-07-31T04:07:15;5.00;;;2.00;;
23702;SDS011;12030;50.376;8.762;2023-07-31T04:09:41;5.10;;;1.80;;
23702;SDS011;12030;50.376;8.762;2023-07-31T04:12:06;4.00;;;1.75;;
23702;SDS011;12030;50.376;8.762;2023-07-31T04:14:32;4.15;;;1.90;;
23702;SDS011;12030;50.376;8.762;2023-07-31T04:16:58;6.03;;;2.10;;
23702;SDS011;12030;50.376;8.762;2023-07-31T04:19:23;4.53;;;1.90;;
23702;SDS011;12030;50.376;8.762;2023-07-31T04:21:49;4.57;;;1.83;;
23702;SDS011;12030;50.376;8.762;2023-07-31T04:24:15;4.88;;;2.15;;
23702;SDS011;12030;50.376;8.762;2023-07-31T04:26:40;3.88;;;1.70;;
23702;SDS011;12030;50.376;8.762;2023-07-31T04:29:06;6.45;;;1.95;;
23702;SDS011;12030;50.376;8.762;2023-07-31T04:31:33;5.30;;;1.97;;
23702;SDS011;12030;50.376;8.762;2023-07-31T04:33:58;5.70;;;1.90;;
23702;SDS011;12030;50.376;8.762;2023-07-31T04:36:24;4.63;;;2.20;;
23702;SDS011;12030;50.376;8.762;2023-07-31T04:38:49;5.27;;;2.27;;
23702;SDS011;12030;50.376;8.762;2023-07-31T04:41:15;4.32;;;1.85;;
23702;SDS011;12030;50.376;8.762;2023-07-31T04:43:40;6.75;;;2.17;;
23702;SDS011;12030;50.376;8.762;2023-07-31T04:46:06;5.80;;;2.13;;
23702;SDS011;12030;50.376;8.762;2023-07-31T04:48:32;4.45;;;1.95;;
23702;SDS011;12030;50.376;8.762;2023-07-31T04:50:57;5.85;;;1.92;;
23702;SDS011;12030;50.376;8.762;2023-07-31T04:53:23;5.60;;;1.92;;
23702;SDS011;12030;50.376;8.762;2023-07-31T04:55:48;4.97;;;1.88;;
23702;SDS011;12030;50.376;8.762;2023-07-31T04:58:14;5.20;;;2.00;;
23702;SDS011;12030;50.376;8.762;2023-07-31T05:00:39;4.03;;;1.67;;
23702;SDS011;12030;50.376;8.762;2023-07-31T05:03:05;4.97;;;2.27;;
23702;SDS011;12030;50.376;8.762;2023-07-31T05:05:31;5.43;;;2.10;;
23702;SDS011;12030;50.376;8.762;2023-07-31T05:07:56;4.80;;;2.10;;
23702;SDS011;12030;50.376;8.762;2023-07-31T05:10:22;4.43;;;1.73;;
23702;SDS011;12030;50.376;8.762;2023-07-31T05:12:47;4.57;;;2.00;;
23702;SDS011;12030;50.376;8.762;2023-07-31T05:15:13;3.33;;;1.80;;
23702;SDS011;12030;50.376;8.762;2023-07-31T05:17:38;4.03;;;1.63;;
23702;SDS011;12030;50.376;8.762;2023-07-31T05:20:04;3.80;;;2.00;;
23702;SDS011;12030;50.376;8.762;2023-07-31T05:22:30;4.33;;;2.10;;
23702;SDS011;12030;50.376;8.762;2023-07-31T05:24:56;5.20;;;1.97;;
23702;SDS011;12030;50.376;8.762;2023-07-31T05:27:21;5.33;;;2.27;;
23702;SDS011;12030;50.376;8.762;2023-07-31T05:29:47;4.83;;;2.17;;
23702;SDS011;12030;50.376;8.762;2023-07-31T05:32:12;2.93;;;1.80;;
23702;SDS011;12030;50.376;8.762;2023-07-31T05:34:38;4.63;;;2.10;;
23702;SDS011;12030;50.376;8.762;2023-07-31T05:37:04;4.53;;;2.27;;
23702;SDS011;12030;50.376;8.762;2023-07-31T05:39:30;4.90;;;2.03;;
23702;SDS011;12030;50.376;8.762;2023-07-31T05:41:56;7.03;;;2.30;;
23702;SDS011;12030;50.376;8.762;2023-07-31T05:44:21;4.40;;;1.83;;
23702;SDS011;12030;50.376;8.762;2023-07-31T05:46:47;4.47;;;1.90;;
23702;SDS011;12030;50.376;8.762;2023-07-31T05:49:12;5.87;;;1.80;;
23702;SDS011;12030;50.376;8.762;2023-07-31T05:51:38;5.87;;;2.20;;
23702;SDS011;12030;50.376;8.762;2023-07-31T05:54:03;3.57;;;1.97;;
23702;SDS011;12030;50.376;8.762;2023-07-31T05:56:29;4.70;;;2.00;;
23702;SDS011;12030;50.376;8.762;2023-07-31T05:58:55;3.73;;;1.93;;
23702;SDS011;12030;50.376;8.762;2023-07-31T06:01:22;3.47;;;2.10;;
23702;SDS011;12030;50.376;8.762;2023-07-31T06:03:47;5.10;;;2.30;;
23702;SDS011;12030;50.376;8.762;2023-07-31T06:06:13;9.50;;;2.50;;
23702;SDS011;12030;50.376;8.762;2023-07-31T06:08:39;5.80;;;2.30;;
23702;SDS011;12030;50.376;8.762;2023-07-31T06:11:05;8.60;;;2.63;;
23702;SDS011;12030;50.376;8.762;2023-07-31T06:13:30;6.17;;;2.80;;
23702;SDS011;12030;50.376;8.762;2023-07-31T06:15:56;3.90;;;1.87;;
23702;SDS011;12030;50.376;8.762;2023-07-31T06:18:21;5.63;;;2.47;;
23702;SDS011;12030;50.376;8.762;2023-07-31T06:20:47;4.67;;;2.10;;
23702;SDS011;12030;50.376;8.762;2023-07-31T06:23:18;8.00;;;2.47;;
23702;SDS011;12030;50.376;8.762;2023-07-31T06:25:44;5.90;;;2.40;;
23702;SDS011;12030;50.376;8.762;2023-07-31T06:28:09;6.13;;;2.20;;
23702;SDS011;12030;50.376;8.762;2023-07-31T06:30:35;6.23;;;2.37;;
23702;SDS011;12030;50.376;8.762;2023-07-31T06:33:00;5.93;;;2.30;;
23702;SDS011;12030;50.376;8.762;2023-07-31T06:35:26;7.90;;;2.43;;
23702;SDS011;12030;50.376;8.762;2023-07-31T06:37:51;6.83;;;2.63;;
23702;SDS011;12030;50.376;8.762;2023-07-31T06:40:17;5.97;;;2.43;;
23702;SDS011;12030;50.376;8.762;2023-07-31T06:42:42;10.40;;;2.70;;
23702;SDS011;12030;50.376;8.762;2023-07-31T06:45:08;4.53;;;2.27;;
23702;SDS011;12030;50.376;8.762;2023-07-31T06:47:34;10.13;;;1.93;;
23702;SDS011;12030;50.376;8.762;2023-07-31T06:49:59;4.40;;;2.20;;
23702;SDS011;12030;50.376;8.762;2023-07-31T06:52:25;4.30;;;2.07;;
23702;SDS011;12030;50.376;8.762;2023-07-31T06:57:49;9.47;;;2.60;;
23702;SDS011;12030;50.376;8.762;2023-07-31T07:00:17;6.77;;;2.13;;
23702;SDS011;12030;50.376;8.762;2023-07-31T07:02:43;7.13;;;2.40;;
23702;SDS011;12030;50.376;8.762;2023-07-31T07:05:08;4.60;;;2.30;;
23702;SDS011;12030;50.376;8.762;2023-07-31T07:07:35;7.10;;;2.60;;
23702;SDS011;12030;50.376;8.762;2023-07-31T07:10:00;8.33;;;2.83;;
23702;SDS011;12030;50.376;8.762;2023-07-31T07:12:29;4.93;;;2.17;;
23702;SDS011;12030;50.376;8.762;2023-07-31T07:14:55;7.67;;;3.00;;
23702;SDS011;12030;50.376;8.762;2023-07-31T07:17:20;7.20;;;2.10;;
23702;SDS011;12030;50.376;8.762;2023-07-31T07:19:47;9.87;;;2.47;;
23702;SDS011;12030;50.376;8.762;2023-07-31T07:22:13;5.03;;;2.57;;
23702;SDS011;12030;50.376;8.762;2023-07-31T07:24:38;4.53;;;2.07;;
23702;SDS011;12030;50.376;8.762;2023-07-31T07:27:04;5.00;;;2.40;;
23702;SDS011;12030;50.376;8.762;2023-07-31T07:29:30;8.20;;;2.30;;
23702;SDS011;12030;50.376;8.762;2023-07-31T07:31:55;5.63;;;2.17;;
23702;SDS011;12030;50.376;8.762;2023-07-31T07:34:25;7.03;;;2.60;;
23702;SDS011;12030;50.376;8.762;2023-07-31T07:36:51;8.87;;;3.80;;
23702;SDS011;12030;50.376;8.762;2023-07-31T07:39:17;4.80;;;2.20;;
23702;SDS011;12030;50.376;8.762;2023-07-31T07:41:42;7.50;;;2.57;;
23702;SDS011;12030;50.376;8.762;2023-07-31T07:44:08;5.67;;;2.30;;
23702;SDS011;12030;50.376;8.762;2023-07-31T07:46:34;8.17;;;2.63;;
23702;SDS011;12030;50.376;8.762;2023-07-31T07:48:59;4.50;;;2.20;;
23702;SDS011;12030;50.376;8.762;2023-07-31T07:51:25;13.17;;;2.43;;
23702;SDS011;12030;50.376;8.762;2023-07-31T07:53:50;5.87;;;2.60;;
23702;SDS011;12030;50.376;8.762;2023-07-31T07:56:16;5.87;;;2.30;;
23702;SDS011;12030;50.376;8.762;2023-07-31T07:58:42;6.43;;;2.53;;
23702;SDS011;12030;50.376;8.762;2023-07-31T08:01:07;7.73;;;2.60;;
23702;SDS011;12030;50.376;8.762;2023-07-31T08:03:33;6.53;;;2.73;;
23702;SDS011;12030;50.376;8.762;2023-07-31T08:05:59;7.27;;;2.90;;
23702;SDS011;12030;50.376;8.762;2023-07-31T08:08:25;4.47;;;2.47;;
23702;SDS011;12030;50.376;8.762;2023-07-31T08:10:51;8.93;;;3.10;;
23702;SDS011;12030;50.376;8.762;2023-07-31T08:13:16;5.63;;;2.22;;
23702;SDS011;12030;50.376;8.762;2023-07-31T08:15:42;7.97;;;2.60;;
23702;SDS011;12030;50.376;8.762;2023-07-31T08:18:08;6.57;;;2.47;;
23702;SDS011;12030;50.376;8.762;2023-07-31T08:20:35;10.65;;;2.97;;
23702;SDS011;12030;50.376;8.762;2023-07-31T08:23:00;5.67;;;2.60;;
23702;SDS011;12030;50.376;8.762;2023-07-31T08:25:26;8.00;;;2.70;;
23702;SDS011;12030;50.376;8.762;2023-07-31T08:27:51;7.20;;;2.60;;
23702;SDS011;12030;50.376;8.762;2023-07-31T08:30:18;6.03;;;2.30;;
23702;SDS011;12030;50.376;8.762;2023-07-31T08:32:44;4.80;;;2.47;;
23702;SDS011;12030;50.376;8.762;2023-07-31T08:35:09;8.70;;;2.65;;
23702;SDS011;12030;50.376;8.762;2023-07-31T08:37:35;6.33;;;2.40;;
23702;SDS011;12030;50.376;8.762;2023-07-31T08:40:03;5.10;;;2.20;;
23702;SDS011;12030;50.376;8.762;2023-07-31T08:42:29;6.28;;;2.50;;
23702;SDS011;12030;50.376;8.762;2023-07-31T08:44:55;5.20;;;2.20;;
23702;SDS011;12030;50.376;8.762;2023-07-31T08:47:21;4.97;;;2.27;;
23702;SDS011;12030;50.376;8.762;2023-07-31T08:49:47;8.47;;;2.40;;
23702;SDS011;12030;50.376;8.762;2023-07-31T08:52:14;6.47;;;2.20;;
23702;SDS011;12030;50.376;8.762;2023-07-31T08:54:40;5.40;;;2.45;;
23702;SDS011;12030;50.376;8.762;2023-07-31T08:57:06;5.25;;;2.33;;
23702;SDS011;12030;50.376;8.762;2023-07-31T08:59:32;6.00;;;2.35;;
23702;SDS011;12030;50.376;8.762;2023-07-31T09:02:03;4.50;;;2.20;;
23702;SDS011;12030;50.376;8.762;2023-07-31T09:04:31;6.47;;;2.78;;
23702;SDS011;12030;50.376;8.762;2023-07-31T09:06:59;7.70;;;2.53;;
23702;SDS011;12030;50.376;8.762;2023-07-31T09:09:28;5.37;;;2.50;;
23702;SDS011;12030;50.376;8.762;2023-07-31T09:11:54;6.47;;;2.50;;
23702;SDS011;12030;50.376;8.762;2023-07-31T09:14:20;6.30;;;2.42;;
23702;SDS011;12030;50.376;8.762;2023-07-31T09:16:53;6.57;;;2.40;;
23702;SDS011;12030;50.376;8.762;2023-07-31T09:19:32;11.70;;;2.80;;
23702;SDS011;12030;50.376;8.762;2023-07-31T09:21:59;6.37;;;2.30;;
23702;SDS011;12030;50.376;8.762;2023-07-31T09:24:26;6.43;;;2.47;;
23702;SDS011;12030;50.376;8.762;2023-07-31T09:26:55;7.32;;;2.70;;
23702;SDS011;12030;50.376;8.762;2023-07-31T09:29:22;7.93;;;2.60;;
23702;SDS011;12030;50.376;8.762;2023-07-31T09:31:47;5.13;;;2.47;;
23702;SDS011;12030;50.376;8.762;2023-07-31T09:34:13;5.57;;;2.63;;
23702;SDS011;12030;50.376;8.762;2023-07-31T09:36:42;4.60;;;2.33;;
23702;SDS011;12030;50.376;8.762;2023-07-31T09:39:12;5.73;;;2.47;;
23702;SDS011;12030;50.376;8.762;2023-07-31T09:41:42;5.63;;;2.60;;
23702;SDS011;12030;50.376;8.762;2023-07-31T09:44:09;8.07;;;2.50;;
23702;SDS011;12030;50.376;8.762;2023-07-31T09:46:35;6.63;;;2.80;;
23702;SDS011;12030;50.376;8.762;2023-07-31T09:49:05;7.00;;;2.60;;
23702;SDS011;12030;50.376;8.762;2023-07-31T09:51:34;7.27;;;2.70;;
23702;SDS011;12030;50.376;8.762;2023-07-31T09:54:03;6.80;;;2.47;;
23702;SDS011;12030;50.376;8.762;2023-07-31T09:56:34;6.40;;;2.27;;
23702;SDS011;12030;50.376;8.762;2023-07-31T09:59:01;5.60;;;2.40;;
23702;SDS011;12030;50.376;8.762;2023-07-31T10:01:29;5.60;;;2.77;;
23702;SDS011;12030;50.376;8.762;2023-07-31T10:03:54;6.43;;;3.17;;
23702;SDS011;12030;50.376;8.762;2023-07-31T10:06:22;5.20;;;2.50;;
23702;SDS011;12030;50.376;8.762;2023-07-31T10:08:49;4.43;;;2.53;;
23702;SDS011;12030;50.376;8.762;2023-07-31T10:11:17;6.00;;;2.77;;
23702;SDS011;12030;50.376;8.762;2023-07-31T10:13:43;7.77;;;2.67;;
23702;SDS011;12030;50.376;8.762;2023-07-31T10:16:10;6.00;;;2.20;;
23702;SDS011;12030;50.376;8.762;2023-07-31T10:18:37;6.53;;;2.23;;
23702;SDS011;12030;50.376;8.762;2023-07-31T10:21:03;5.63;;;2.57;;
23702;SDS011;12030;50.376;8.762;2023-07-31T10:23:29;4.23;;;2.23;;
23702;SDS011;12030;50.376;8.762;2023-07-31T10:25:55;7.07;;;2.93;;
23702;SDS011;12030;50.376;8.762;2023-07-31T10:28:23;5.43;;;2.80;;
23702;SDS011;12030;50.376;8.762;2023-07-31T10:30:50;3.97;;;2.37;;
23702;SDS011;12030;50.376;8.762;2023-07-31T10:33:17;5.73;;;2.50;;
23702;SDS011;12030;50.376;8.762;2023-07-31T10:35:46;6.57;;;2.47;;
23702;SDS011;12030;50.376;8.762;2023-07-31T10:38:12;5.13;;;1.87;;
23702;SDS011;12030;50.376;8.762;2023-07-31T10:40:38;6.93;;;2.20;;
23702;SDS011;12030;50.376;8.762;2023-07-31T10:43:04;8.10;;;2.50;;
23702;SDS011;12030;50.376;8.762;2023-07-31T10:45:42;5.27;;;2.00;;
23702;SDS011;12030;50.376;8.762;2023-07-31T10:48:17;4.87;;;2.40;;
23702;SDS011;12030;50.376;8.762;2023-07-31T10:50:54;4.87;;;2.30;;
23702;SDS011;12030;50.376;8.762;2023-07-31T10:53:24;5.60;;;2.17;;
23702;SDS011;12030;50.376;8.762;2023-07-31T10:56:01;6.03;;;2.63;;
23702;SDS011;12030;50.376;8.762;2023-07-31T10:58:29;4.20;;;2.53;;
23702;SDS011;12030;50.376;8.762;2023-07-31T11:00:57;7.33;;;2.53;;
23702;SDS011;12030;50.376;8.762;2023-07-31T11:04:09;5.77;;;2.17;;
23702;SDS011;12030;50.376;8.762;2023-07-31T11:06:14;4.33;;;2.10;;
23702;SDS011;12030;50.376;8.762;2023-07-31T11:08:41;4.37;;;2.30;;
23702;SDS011;12030;50.376;8.762;2023-07-31T11:11:09;3.87;;;2.30;;
23702;SDS011;12030;50.376;8.762;2023-07-31T11:19:28;5.13;;;2.47;;
23702;SDS011;12030;50.376;8.762;2023-07-31T11:21:53;6.23;;;2.27;;
23702;SDS011;12030;50.376;8.762;2023-07-31T11:24:19;3.77;;;1.90;;
23702;SDS011;12030;50.376;8.762;2023-07-31T11:26:51;3.87;;;2.00;;
23702;SDS011;12030;50.376;8.762;2023-07-31T11:29:18;5.53;;;2.30;;
23702;SDS011;12030;50.376;8.762;2023-07-31T11:31:45;3.50;;;2.10;;
23702;SDS011;12030;50.376;8.762;2023-07-31T11:34:11;7.90;;;2.47;;
23702;SDS011;12030;50.376;8.762;2023-07-31T11:36:37;4.63;;;2.20;;
23702;SDS011;12030;50.376;8.762;2023-07-31T11:39:06;3.67;;;2.13;;
23702;SDS011;12030;50.376;8.762;2023-07-31T11:41:35;3.90;;;2.30;;
23702;SDS011;12030;50.376;8.762;2023-07-31T11:44:00;3.90;;;2.37;;
23702;SDS011;12030;50.376;8.762;2023-07-31T11:46:27;4.77;;;2.27;;
23702;SDS011;12030;50.376;8.762;2023-07-31T11:48:58;4.20;;;2.03;;
23702;SDS011;12030;50.376;8.762;2023-07-31T11:51:25;4.80;;;2.17;;
23702;SDS011;12030;50.376;8.762;2023-07-31T11:53:52;4.93;;;2.20;;
23702;SDS011;12030;50.376;8.762;2023-07-31T11:56:20;5.47;;;2.30;;
23702;SDS011;12030;50.376;8.762;2023-07-31T11:58:58;3.73;;;2.07;;
23702;SDS011;12030;50.376;8.762;2023-07-31T12:01:27;4.10;;;2.20;;
23702;SDS011;12030;50.376;8.762;2023-07-31T12:03:53;2.83;;;2.20;;
23702;SDS011;12030;50.376;8.762;2023-07-31T12:06:19;4.67;;;2.17;;
23702;SDS011;12030;50.376;8.762;2023-07-31T12:08:47;4.03;;;2.20;;
23702;SDS011;12030;50.376;8.762;2023-07-31T12:11:14;5.53;;;2.50;;
23702;SDS011;12030;50.376;8.762;2023-07-31T12:13:40;4.67;;;2.40;;
23702;SDS011;12030;50.376;8.762;2023-07-31T12:16:05;5.27;;;2.50;;
23702;SDS011;12030;50.376;8.762;2023-07-31T12:18:34;4.33;;;2.20;;
23702;SDS011;12030;50.376;8.762;2023-07-31T12:21:02;4.05;;;2.28;;
23702;SDS011;12030;50.376;8.762;2023-07-31T12:23:32;6.17;;;2.70;;
23702;SDS011;12030;50.376;8.762;2023-07-31T12:26:02;5.20;;;2.30;;
23702;SDS011;12030;50.376;8.762;2023-07-31T12:28:29;5.32;;;2.40;;
23702;SDS011;12030;50.376;8.762;2023-07-31T12:30:58;5.20;;;2.28;;
23702;SDS011;12030;50.376;8.762;2023-07-31T12:33:29;5.72;;;2.30;;
23702;SDS011;12030;50.376;8.762;2023-07-31T12:36:00;4.67;;;2.20;;
23702;SDS011;12030;50.376;8.762;2023-07-31T12:38:27;4.22;;;2.22;;
23702;SDS011;12030;50.376;8.762;2023-07-31T12:40:53;5.37;;;2.13;;
23702;SDS011;12030;50.376;8.762;2023-07-31T12:43:18;4.07;;;2.17;;
23702;SDS011;12030;50.376;8.762;2023-07-31T12:45:44;4.27;;;2.10;;
23702;SDS011;12030;50.376;8.762;2023-07-31T12:48:10;5.43;;;2.38;;
23702;SDS011;12030;50.376;8.762;2023-07-31T12:50:35;5.07;;;2.07;;
23702;SDS011;12030;50.376;8.762;2023-07-31T12:53:01;4.50;;;2.07;;
23702;SDS011;12030;50.376;8.762;2023-07-31T12:55:28;3.85;;;2.08;;
23702;SDS011;12030;50.376;8.762;2023-07-31T12:57:55;3.33;;;2.20;;
23702;SDS011;12030;50.376;8.762;2023-07-31T13:00:20;2.90;;;2.00;;
23702;SDS011;12030;50.376;8.762;2023-07-31T13:02:46;4.72;;;2.20;;
23702;SDS011;12030;50.376;8.762;2023-07-31T13:05:12;5.18;;;2.30;;
23702;SDS011;12030;50.376;8.762;2023-07-31T13:07:38;3.78;;;2.03;;
23702;SDS011;12030;50.376;8.762;2023-07-31T13:10:04;5.22;;;2.15;;
23702;SDS011;12030;50.376;8.762;2023-07-31T13:12:30;4.20;;;2.15;;
23702;SDS011;12030;50.376;8.762;2023-07-31T13:14:56;4.72;;;2.55;;
23702;SDS011;12030;50.376;8.762;2023-07-31T13:17:21;5.38;;;2.28;;
23702;SDS011;12030;50.376;8.762;2023-07-31T13:19:47;4.93;;;2.17;;
23702;SDS011;12030;50.376;8.762;2023-07-31T13:22:12;4.70;;;2.57;;
23702;SDS011;12030;50.376;8.762;2023-07-31T13:24:38;4.47;;;2.20;;
23702;SDS011;12030;50.376;8.762;2023-07-31T13:27:03;4.20;;;2.00;;
23702;SDS011;12030;50.376;8.762;2023-07-31T13:29:29;4.07;;;2.30;;
23702;SDS011;12030;50.376;8.762;2023-07-31T13:31:55;3.60;;;1.90;;
23702;SDS011;12030;50.376;8.762;2023-07-31T13:34:21;3.17;;;2.30;;
23702;SDS011;12030;50.376;8.762;2023-07-31T13:36:46;3.77;;;2.10;;
23702;SDS011;12030;50.376;8.762;2023-07-31T13:39:12;4.65;;;2.13;;
23702;SDS011;12030;50.376;8.762;2023-07-31T13:41:37;6.07;;;2.23;;
23702;SDS011;12030;50.376;8.762;2023-07-31T13:44:03;5.57;;;2.10;;
23702;SDS011;12030;50.376;8.762;2023-07-31T13:46:28;4.33;;;2.07;;
23702;SDS011;12030;50.376;8.762;2023-07-31T13:48:54;5.63;;;2.30;;
23702;SDS011;12030;50.376;8.762;2023-07-31T13:51:20;3.85;;;1.92;;
23702;SDS011;12030;50.376;8.762;2023-07-31T13:53:46;4.63;;;2.03;;
23702;SDS011;12030;50.376;8.762;2023-07-31T13:56:12;3.78;;;2.10;;
23702;SDS011;12030;50.376;8.762;2023-07-31T13:58:38;4.60;;;2.05;;
23702;SDS011;12030;50.376;8.762;2023-07-31T14:01:04;4.53;;;2.13;;
23702;SDS011;12030;50.376;8.762;2023-07-31T14:03:30;4.27;;;2.20;;
23702;SDS011;12030;50.376;8.762;2023-07-31T14:05:56;7.13;;;2.30;;
23702;SDS011;12030;50.376;8.762;2023-07-31T14:08:21;4.40;;;2.13;;
23702;SDS011;12030;50.376;8.762;2023-07-31T14:10:47;4.80;;;2.17;;
23702;SDS011;12030;50.376;8.762;2023-07-31T14:13:12;5.03;;;2.22;;
23702;SDS011;12030;50.376;8.762;2023-07-31T14:15:39;6.65;;;2.40;;
23702;SDS011;12030;50.376;8.762;2023-07-31T14:18:07;4.20;;;2.45;;
23702;SDS011;12030;50.376;8.762;2023-07-31T14:20:32;5.40;;;2.53;;
23702;SDS011;12030;50.376;8.762;2023-07-31T14:22:58;3.45;;;1.95;;
23702;SDS011;12030;50.376;8.762;2023-07-31T14:25:24;5.20;;;2.45;;
23702;SDS011;12030;50.376;8.762;2023-07-31T14:27:49;3.87;;;2.20;;
23702;SDS011;12030;50.376;8.762;2023-07-31T14:30:15;4.00;;;2.10;;
23702;SDS011;12030;50.376;8.762;2023-07-31T14:32:41;3.35;;;2.17;;
23702;SDS011;12030;50.376;8.762;2023-07-31T14:35:06;4.32;;;2.13;;
23702;SDS011;12030;50.376;8.762;2023-07-31T14:37:39;3.85;;;2.13;;
23702;SDS011;12030;50.376;8.762;2023-07-31T14:40:06;4.07;;;2.20;;
23702;SDS011;12030;50.376;8.762;2023-07-31T14:42:32;3.00;;;2.10;;
23702;SDS011;12030;50.376;8.762;2023-07-31T14:44:58;3.92;;;2.03;;
23702;SDS011;12030;50.376;8.762;2023-07-31T14:47:24;3.23;;;1.73;;
23702;SDS011;12030;50.376;8.762;2023-07-31T14:49:49;3.30;;;1.80;;
23702;SDS011;12030;50.376;8.762;2023-07-31T14:52:15;4.83;;;2.10;;
23702;SDS011;12030;50.376;8.762;2023-07-31T14:54:40;4.88;;;1.92;;
23702;SDS011;12030;50.376;8.762;2023-07-31T14:57:06;4.32;;;2.10;;
23702;SDS011;12030;50.376;8.762;2023-07-31T14:59:31;2.78;;;1.60;;
23702;SDS011;12030;50.376;8.762;2023-07-31T15:01:57;3.38;;;1.83;;